sensor_id;sensor_type;location;lat;lon;timestamp;P1;durP1;ratioP1;P2;durP2;ratioP2
80746;SDS011;70144;50.218;14.322;2023-09-30T00:02:25;7.72;;;3.88;;
80746;SDS011;70144;50.218;14.322;2023-09-30T00:04:51;8.75;;;4.47;;
80746;SDS011;70144;50.218;14.322;2023-09-30T00:07:17;7.95;;;4.22;;
80746;SDS011;70144;50.218;14.322;2023-09-30T00:09:42;12.75;;;5.15;;
80746;SDS011;70144;50.218;14.322;2023-09-30T00:12:08;7.95;;;4.38;;
80746;SDS011;70144;50.218;14.322;2023-09-30T00:14:33;9.43;;;5.22;;
80746;SDS011;70144;50.218;14.322;2023-09-30T00:16:59;14.15;;;5.72;;
80746;SDS011;70144;50.218;14.322;2023-09-30T00:19:25;10.85;;;5.00;;
80746;SDS011;70144;50.218;14.322;2023-09-30T00:24:16;10.95;;;5.53;;
80746;SDS011;70144;50.218;14.322;2023-09-30T00:26:41;11.68;;;5.40;;
80746;SDS011;70144;50.218;14.322;2023-09-30T00:29:07;14.57;;;5.90;;
80746;SDS011;70144;50.218;14.322;2023-09-30T00:31:32;16.23;;;7.10;;
80746;SDS011;70144;50.218;14.322;2023-09-30T00:33:57;14.45;;;7.22;;
80746;SDS011;70144;50.218;14.322;2023-09-30T00:36:23;16.13;;;6.88;;
80746;SDS011;70144;50.218;14.322;2023-09-30T00:38:48;16.05;;;7.28;;
80746;SDS011;70144;50.218;14.322;2023-09-30T00:41:13;14.07;;;6.72;;
80746;SDS011;70144;50.218;14.322;2023-09-30T00:43:39;19.90;;;7.40;;
80746;SDS011;70144;50.218;14.322;2023-09-30T00:48:46;19.75;;;8.07;;
80746;SDS011;70144;50.218;14.322;2023-09-30T00:51:11;18.02;;;8.68;;
80746;SDS011;70144;50.218;14.322;2023-09-30T00:53:37;18.98;;;7.70;;
80746;SDS011;70144;50.218;14.322;2023-09-30T00:56:03;20.63;;;9.23;;
80746;SDS011;70144;50.218;14.322;2023-09-30T00:58:29;21.42;;;8.75;;
80746;SDS011;70144;50.218;14.322;2023-09-30T01:00:56;23.88;;;9.20;;
80746;SDS011;70144;50.218;14.322;2023-09-30T01:03:22;21.60;;;9.40;;
80746;SDS011;70144;50.218;14.322;2023-09-30T01:05:48;22.27;;;9.15;;
80746;SDS011;70144;50.218;14.322;2023-09-30T01:08:14;21.40;;;8.85;;
80746;SDS011;70144;50.218;14.322;2023-09-30T01:10:41;24.30;;;8.50;;
80746;SDS011;70144;50.218;14.322;2023-09-30T01:13:07;21.35;;;9.23;;
80746;SDS011;70144;50.218;14.322;2023-09-30T01:15:32;26.85;;;9.38;;
80746;SDS011;70144;50.218;14.322;2023-09-30T01:17:57;21.30;;;9.68;;
80746;SDS011;70144;50.218;14.322;2023-09-30T01:20:23;23.63;;;9.07;;
80746;SDS011;70144;50.218;14.322;2023-09-30T01:22:49;21.48;;;8.50;;
80746;SDS011;70144;50.218;14.322;2023-09-30T01:25:14;24.40;;;9.77;;
80746;SDS011;70144;50.218;14.322;2023-09-30T01:27:39;23.95;;;8.95;;
80746;SDS011;70144;50.218;14.322;2023-09-30T01:30:05;21.98;;;8.52;;
80746;SDS011;70144;50.218;14.322;2023-09-30T01:32:31;25.90;;;9.93;;
80746;SDS011;70144;50.218;14.322;2023-09-30T01:34:56;22.92;;;9.70;;
80746;SDS011;70144;50.218;14.322;2023-09-30T01:37:21;25.13;;;9.90;;
80746;SDS011;70144;50.218;14.322;2023-09-30T01:39:47;22.23;;;9.35;;
80746;SDS011;70144;50.218;14.322;2023-09-30T01:42:15;24.17;;;9.50;;
80746;SDS011;70144;50.218;14.322;2023-09-30T01:44:40;22.83;;;9.05;;
80746;SDS011;70144;50.218;14.322;2023-09-30T01:47:06;23.60;;;8.75;;
80746;SDS011;70144;50.218;14.322;2023-09-30T01:49:31;21.60;;;9.20;;
80746;SDS011;70144;50.218;14.322;2023-09-30T01:51:56;26.88;;;9.73;;
80746;SDS011;70144;50.218;14.322;2023-09-30T01:54:22;20.52;;;8.70;;
80746;SDS011;70144;50.218;14.322;2023-09-30T01:56:47;20.35;;;9.55;;
80746;SDS011;70144;50.218;14.322;2023-09-30T01:59:12;22.90;;;9.82;;
80746;SDS011;70144;50.218;14.322;2023-09-30T02:01:38;24.58;;;9.73;;
80746;SDS011;70144;50.218;14.322;2023-09-30T02:04:03;21.88;;;8.18;;
80746;SDS011;70144;50.218;14.322;2023-09-30T02:06:31;26.15;;;9.63;;
80746;SDS011;70144;50.218;14.322;2023-09-30T02:08:57;22.42;;;9.00;;
80746;SDS011;70144;50.218;14.322;2023-09-30T02:11:22;22.85;;;9.00;;
80746;SDS011;70144;50.218;14.322;2023-09-30T02:13:47;22.17;;;9.65;;
80746;SDS011;70144;50.218;14.322;2023-09-30T02:16:13;23.67;;;9.35;;
80746;SDS011;70144;50.218;14.322;2023-09-30T02:18:39;22.50;;;9.43;;
80746;SDS011;70144;50.218;14.322;2023-09-30T02:21:06;21.25;;;9.02;;
80746;SDS011;70144;50.218;14.322;2023-09-30T02:23:32;23.30;;;8.65;;
80746;SDS011;70144;50.218;14.322;2023-09-30T02:25:58;24.80;;;9.13;;
80746;SDS011;70144;50.218;14.322;2023-09-30T02:28:23;22.60;;;8.95;;
80746;SDS011;70144;50.218;14.322;2023-09-30T02:30:49;25.27;;;9.93;;
80746;SDS011;70144;50.218;14.322;2023-09-30T02:33:14;28.20;;;10.07;;
80746;SDS011;70144;50.218;14.322;2023-09-30T02:35:43;25.85;;;7.95;;
80746;SDS011;70144;50.218;14.322;2023-09-30T02:38:10;23.40;;;8.43;;
80746;SDS011;70144;50.218;14.322;2023-09-30T02:40:36;20.48;;;7.97;;
80746;SDS011;70144;50.218;14.322;2023-09-30T02:43:01;26.20;;;9.60;;
80746;SDS011;70144;50.218;14.322;2023-09-30T02:45:27;20.92;;;7.93;;
80746;SDS011;70144;50.218;14.322;2023-09-30T02:47:52;24.52;;;9.38;;
80746;SDS011;70144;50.218;14.322;2023-09-30T02:50:17;21.90;;;9.02;;
80746;SDS011;70144;50.218;14.322;2023-09-30T02:52:43;25.25;;;10.32;;
80746;SDS011;70144;50.218;14.322;2023-09-30T02:55:09;24.77;;;9.63;;
80746;SDS011;70144;50.218;14.322;2023-09-30T02:57:35;23.63;;;8.68;;
80746;SDS011;70144;50.218;14.322;2023-09-30T03:00:03;22.70;;;9.00;;
80746;SDS011;70144;50.218;14.322;2023-09-30T03:02:52;23.48;;;9.05;;
80746;SDS011;70144;50.218;14.322;2023-09-30T03:05:18;21.30;;;8.85;;
80746;SDS011;70144;50.218;14.322;2023-09-30T03:07:44;25.17;;;8.52;;
80746;SDS011;70144;50.218;14.322;2023-09-30T03:10:10;23.33;;;9.18;;
80746;SDS011;70144;50.218;14.322;2023-09-30T03:12:37;24.48;;;8.98;;
80746;SDS011;70144;50.218;14.322;2023-09-30T03:15:03;25.05;;;8.70;;
80746;SDS011;70144;50.218;14.322;2023-09-30T03:17:30;21.92;;;8.15;;
80746;SDS011;70144;50.218;14.322;2023-09-30T03:19:56;23.95;;;8.63;;
80746;SDS011;70144;50.218;14.322;2023-09-30T03:22:22;23.65;;;8.50;;
80746;SDS011;70144;50.218;14.322;2023-09-30T03:24:48;21.77;;;8.30;;
80746;SDS011;70144;50.218;14.322;2023-09-30T03:27:13;23.40;;;7.80;;
80746;SDS011;70144;50.218;14.322;2023-09-30T03:29:40;21.42;;;8.10;;
80746;SDS011;70144;50.218;14.322;2023-09-30T03:32:06;20.40;;;7.95;;
80746;SDS011;70144;50.218;14.322;2023-09-30T03:34:32;23.63;;;8.18;;
80746;SDS011;70144;50.218;14.322;2023-09-30T03:37:01;25.95;;;8.32;;
80746;SDS011;70144;50.218;14.322;2023-09-30T03:39:26;24.25;;;7.63;;
80746;SDS011;70144;50.218;14.322;2023-09-30T03:41:53;20.73;;;7.78;;
80746;SDS011;70144;50.218;14.322;2023-09-30T03:44:20;22.13;;;8.00;;
80746;SDS011;70144;50.218;14.322;2023-09-30T03:46:47;18.42;;;8.48;;
80746;SDS011;70144;50.218;14.322;2023-09-30T03:49:15;20.48;;;8.55;;
80746;SDS011;70144;50.218;14.322;2023-09-30T03:51:40;21.48;;;9.52;;
80746;SDS011;70144;50.218;14.322;2023-09-30T03:54:06;22.08;;;7.63;;
80746;SDS011;70144;50.218;14.322;2023-09-30T03:56:31;23.70;;;8.68;;
80746;SDS011;70144;50.218;14.322;2023-09-30T03:58:56;21.90;;;8.30;;
80746;SDS011;70144;50.218;14.322;2023-09-30T04:01:22;20.40;;;7.55;;
80746;SDS011;70144;50.218;14.322;2023-09-30T04:03:48;21.13;;;6.88;;
80746;SDS011;70144;50.218;14.322;2023-09-30T04:06:14;19.55;;;7.60;;
80746;SDS011;70144;50.218;14.322;2023-09-30T04:08:39;23.55;;;7.72;;
80746;SDS011;70144;50.218;14.322;2023-09-30T04:11:05;19.25;;;8.07;;
80746;SDS011;70144;50.218;14.322;2023-09-30T04:13:31;20.20;;;7.40;;
80746;SDS011;70144;50.218;14.322;2023-09-30T04:15:56;21.17;;;8.15;;
80746;SDS011;70144;50.218;14.322;2023-09-30T04:18:25;20.98;;;8.18;;
80746;SDS011;70144;50.218;14.322;2023-09-30T04:20:51;23.00;;;8.73;;
80746;SDS011;70144;50.218;14.322;2023-09-30T04:23:17;20.60;;;6.95;;
80746;SDS011;70144;50.218;14.322;2023-09-30T04:25:45;19.40;;;7.40;;
80746;SDS011;70144;50.218;14.322;2023-09-30T04:28:11;16.35;;;6.68;;
80746;SDS011;70144;50.218;14.322;2023-09-30T04:30:38;14.15;;;6.22;;
80746;SDS011;70144;50.218;14.322;2023-09-30T04:33:04;10.32;;;3.75;;
80746;SDS011;70144;50.218;14.322;2023-09-30T04:35:29;7.57;;;2.53;;
80746;SDS011;70144;50.218;14.322;2023-09-30T04:37:56;4.95;;;1.63;;
80746;SDS011;70144;50.218;14.322;2023-09-30T04:40:23;2.35;;;1.00;;
80746;SDS011;70144;50.218;14.322;2023-09-30T04:42:49;1.83;;;0.90;;
80746;SDS011;70144;50.218;14.322;2023-09-30T04:45:14;1.02;;;0.73;;
80746;SDS011;70144;50.218;14.322;2023-09-30T04:47:49;1.23;;;0.50;;
80746;SDS011;70144;50.218;14.322;2023-09-30T04:50:15;2.03;;;0.63;;
80746;SDS011;70144;50.218;14.322;2023-09-30T04:52:41;2.35;;;0.50;;
80746;SDS011;70144;50.218;14.322;2023-09-30T04:55:07;2.10;;;0.40;;
80746;SDS011;70144;50.218;14.322;2023-09-30T04:59:59;1.38;;;0.40;;
80746;SDS011;70144;50.218;14.322;2023-09-30T05:02:24;1.77;;;0.60;;
80746;SDS011;70144;50.218;14.322;2023-09-30T05:04:51;2.25;;;0.63;;
80746;SDS011;70144;50.218;14.322;2023-09-30T05:09:42;1.53;;;0.70;;
80746;SDS011;70144;50.218;14.322;2023-09-30T05:12:08;1.60;;;0.68;;
80746;SDS011;70144;50.218;14.322;2023-09-30T05:14:35;2.03;;;0.52;;
80746;SDS011;70144;50.218;14.322;2023-09-30T05:17:01;1.55;;;0.80;;
80746;SDS011;70144;50.218;14.322;2023-09-30T05:19:29;4.28;;;1.20;;
80746;SDS011;70144;50.218;14.322;2023-09-30T05:21:56;2.33;;;0.98;;
80746;SDS011;70144;50.218;14.322;2023-09-30T05:24:22;3.13;;;0.80;;
80746;SDS011;70144;50.218;14.322;2023-09-30T05:26:47;3.33;;;0.93;;
80746;SDS011;70144;50.218;14.322;2023-09-30T05:29:13;3.00;;;0.95;;
80746;SDS011;70144;50.218;14.322;2023-09-30T05:31:38;4.53;;;1.00;;
80746;SDS011;70144;50.218;14.322;2023-09-30T05:34:04;3.47;;;1.05;;
80746;SDS011;70144;50.218;14.322;2023-09-30T05:36:29;4.55;;;1.67;;
80746;SDS011;70144;50.218;14.322;2023-09-30T05:38:55;2.92;;;1.40;;
80746;SDS011;70144;50.218;14.322;2023-09-30T05:41:20;2.70;;;1.60;;
80746;SDS011;70144;50.218;14.322;2023-09-30T05:43:46;3.88;;;1.50;;
80746;SDS011;70144;50.218;14.322;2023-09-30T05:46:12;4.28;;;1.13;;
80746;SDS011;70144;50.218;14.322;2023-09-30T05:48:38;5.40;;;1.67;;
80746;SDS011;70144;50.218;14.322;2023-09-30T05:51:04;3.28;;;1.27;;
80746;SDS011;70144;50.218;14.322;2023-09-30T05:53:31;4.70;;;1.70;;
80746;SDS011;70144;50.218;14.322;2023-09-30T05:55:58;5.88;;;2.03;;
80746;SDS011;70144;50.218;14.322;2023-09-30T05:58:26;2.55;;;1.42;;
80746;SDS011;70144;50.218;14.322;2023-09-30T06:00:54;2.90;;;1.40;;
80746;SDS011;70144;50.218;14.322;2023-09-30T06:03:20;3.35;;;1.40;;
80746;SDS011;70144;50.218;14.322;2023-09-30T06:05:47;3.88;;;1.50;;
80746;SDS011;70144;50.218;14.322;2023-09-30T06:08:13;4.95;;;1.50;;
80746;SDS011;70144;50.218;14.322;2023-09-30T06:10:40;7.25;;;1.67;;
80746;SDS011;70144;50.218;14.322;2023-09-30T06:13:08;4.90;;;1.42;;
80746;SDS011;70144;50.218;14.322;2023-09-30T06:15:38;4.22;;;1.27;;
80746;SDS011;70144;50.218;14.322;2023-09-30T06:18:07;3.80;;;1.58;;
80746;SDS011;70144;50.218;14.322;2023-09-30T06:20:33;5.05;;;1.85;;
80746;SDS011;70144;50.218;14.322;2023-09-30T06:22:58;4.32;;;1.45;;
80746;SDS011;70144;50.218;14.322;2023-09-30T06:25:26;3.50;;;1.33;;
80746;SDS011;70144;50.218;14.322;2023-09-30T06:27:53;5.90;;;1.48;;
80746;SDS011;70144;50.218;14.322;2023-09-30T06:30:22;2.90;;;1.23;;
80746;SDS011;70144;50.218;14.322;2023-09-30T06:32:54;6.47;;;1.55;;
80746;SDS011;70144;50.218;14.322;2023-09-30T06:35:20;3.25;;;1.35;;
80746;SDS011;70144;50.218;14.322;2023-09-30T06:37:45;4.75;;;1.70;;
80746;SDS011;70144;50.218;14.322;2023-09-30T06:40:11;4.88;;;1.33;;
80746;SDS011;70144;50.218;14.322;2023-09-30T06:42:37;5.03;;;1.20;;
80746;SDS011;70144;50.218;14.322;2023-09-30T06:45:04;3.65;;;1.60;;
80746;SDS011;70144;50.218;14.322;2023-09-30T06:47:34;4.50;;;1.65;;
80746;SDS011;70144;50.218;14.322;2023-09-30T06:50:01;5.22;;;1.20;;
80746;SDS011;70144;50.218;14.322;2023-09-30T06:52:37;6.45;;;1.35;;
80746;SDS011;70144;50.218;14.322;2023-09-30T06:55:04;3.03;;;1.20;;
80746;SDS011;70144;50.218;14.322;2023-09-30T06:57:34;6.50;;;1.50;;
80746;SDS011;70144;50.218;14.322;2023-09-30T07:00:00;5.72;;;1.67;;
80746;SDS011;70144;50.218;14.322;2023-09-30T07:02:28;3.38;;;0.85;;
80746;SDS011;70144;50.218;14.322;2023-09-30T07:04:54;6.95;;;1.60;;
80746;SDS011;70144;50.218;14.322;2023-09-30T07:07:19;6.53;;;1.38;;
80746;SDS011;70144;50.218;14.322;2023-09-30T07:09:44;7.68;;;1.42;;
80746;SDS011;70144;50.218;14.322;2023-09-30T07:12:10;3.85;;;1.30;;
80746;SDS011;70144;50.218;14.322;2023-09-30T07:14:35;5.72;;;1.45;;
80746;SDS011;70144;50.218;14.322;2023-09-30T07:17:00;8.00;;;1.52;;
80746;SDS011;70144;50.218;14.322;2023-09-30T07:19:26;3.58;;;1.23;;
80746;SDS011;70144;50.218;14.322;2023-09-30T07:21:51;7.28;;;1.40;;
80746;SDS011;70144;50.218;14.322;2023-09-30T07:24:16;4.45;;;1.50;;
80746;SDS011;70144;50.218;14.322;2023-09-30T07:26:42;3.85;;;1.70;;
80746;SDS011;70144;50.218;14.322;2023-09-30T07:29:08;7.72;;;1.55;;
80746;SDS011;70144;50.218;14.322;2023-09-30T07:31:37;6.35;;;1.92;;
80746;SDS011;70144;50.218;14.322;2023-09-30T07:34:03;5.47;;;1.77;;
80746;SDS011;70144;50.218;14.322;2023-09-30T07:36:28;6.20;;;1.60;;
80746;SDS011;70144;50.218;14.322;2023-09-30T07:38:53;7.15;;;1.30;;
80746;SDS011;70144;50.218;14.322;2023-09-30T07:41:19;4.93;;;1.55;;
80746;SDS011;70144;50.218;14.322;2023-09-30T07:43:44;5.47;;;1.30;;
80746;SDS011;70144;50.218;14.322;2023-09-30T07:46:10;5.40;;;1.85;;
80746;SDS011;70144;50.218;14.322;2023-09-30T07:48:35;7.85;;;1.75;;
80746;SDS011;70144;50.218;14.322;2023-09-30T07:51:01;5.13;;;1.30;;
80746;SDS011;70144;50.218;14.322;2023-09-30T07:53:27;8.95;;;2.10;;
80746;SDS011;70144;50.218;14.322;2023-09-30T07:55:52;4.63;;;1.23;;
80746;SDS011;70144;50.218;14.322;2023-09-30T07:58:19;8.13;;;1.98;;
80746;SDS011;70144;50.218;14.322;2023-09-30T08:00:45;7.65;;;2.30;;
80746;SDS011;70144;50.218;14.322;2023-09-30T08:03:10;4.07;;;1.40;;
80746;SDS011;70144;50.218;14.322;2023-09-30T08:05:36;8.45;;;1.50;;
80746;SDS011;70144;50.218;14.322;2023-09-30T08:08:02;7.32;;;1.90;;
80746;SDS011;70144;50.218;14.322;2023-09-30T08:10:28;6.45;;;2.13;;
80746;SDS011;70144;50.218;14.322;2023-09-30T08:12:55;7.15;;;1.60;;
80746;SDS011;70144;50.218;14.322;2023-09-30T08:15:22;8.98;;;1.60;;
80746;SDS011;70144;50.218;14.322;2023-09-30T08:17:48;4.80;;;2.05;;
80746;SDS011;70144;50.218;14.322;2023-09-30T08:20:13;7.57;;;1.90;;
80746;SDS011;70144;50.218;14.322;2023-09-30T08:22:39;8.50;;;2.25;;
80746;SDS011;70144;50.218;14.322;2023-09-30T08:25:06;5.57;;;2.05;;
80746;SDS011;70144;50.218;14.322;2023-09-30T08:27:32;9.60;;;2.63;;
80746;SDS011;70144;50.218;14.322;2023-09-30T08:29:57;10.70;;;2.63;;
80746;SDS011;70144;50.218;14.322;2023-09-30T08:32:22;8.40;;;1.80;;
80746;SDS011;70144;50.218;14.322;2023-09-30T08:34:48;14.32;;;2.20;;
80746;SDS011;70144;50.218;14.322;2023-09-30T08:37:14;7.35;;;2.50;;
80746;SDS011;70144;50.218;14.322;2023-09-30T08:39:39;8.63;;;2.33;;
80746;SDS011;70144;50.218;14.322;2023-09-30T08:42:08;6.80;;;1.67;;
80746;SDS011;70144;50.218;14.322;2023-09-30T08:44:39;7.13;;;2.10;;
80746;SDS011;70144;50.218;14.322;2023-09-30T08:47:05;9.00;;;2.38;;
80746;SDS011;70144;50.218;14.322;2023-09-30T08:49:37;6.43;;;1.58;;
80746;SDS011;70144;50.218;14.322;2023-09-30T08:52:05;6.88;;;1.55;;
80746;SDS011;70144;50.218;14.322;2023-09-30T08:54:31;7.82;;;1.67;;
80746;SDS011;70144;50.218;14.322;2023-09-30T08:56:56;5.93;;;1.70;;
80746;SDS011;70144;50.218;14.322;2023-09-30T09:01:49;7.65;;;1.50;;
80746;SDS011;70144;50.218;14.322;2023-09-30T09:04:14;6.57;;;1.95;;
80746;SDS011;70144;50.218;14.322;2023-09-30T09:06:40;7.60;;;1.83;;
80746;SDS011;70144;50.218;14.322;2023-09-30T09:09:18;6.88;;;1.92;;
80746;SDS011;70144;50.218;14.322;2023-09-30T09:11:44;4.05;;;1.13;;
80746;SDS011;70144;50.218;14.322;2023-09-30T09:14:11;7.78;;;1.75;;
80746;SDS011;70144;50.218;14.322;2023-09-30T09:16:36;6.78;;;1.90;;
80746;SDS011;70144;50.218;14.322;2023-09-30T09:19:14;4.05;;;1.65;;
80746;SDS011;70144;50.218;14.322;2023-09-30T09:21:56;11.60;;;2.17;;
80746;SDS011;70144;50.218;14.322;2023-09-30T09:27:06;5.28;;;1.52;;
80746;SDS011;70144;50.218;14.322;2023-09-30T09:29:36;6.20;;;2.22;;
80746;SDS011;70144;50.218;14.322;2023-09-30T09:32:20;19.25;;;2.38;;
80746;SDS011;70144;50.218;14.322;2023-09-30T09:34:47;5.55;;;2.20;;
80746;SDS011;70144;50.218;14.322;2023-09-30T09:37:25;7.03;;;1.85;;
80746;SDS011;70144;50.218;14.322;2023-09-30T09:42:30;6.82;;;2.20;;
80746;SDS011;70144;50.218;14.322;2023-09-30T09:44:59;5.50;;;1.63;;
80746;SDS011;70144;50.218;14.322;2023-09-30T09:47:25;7.55;;;1.70;;
80746;SDS011;70144;50.218;14.322;2023-09-30T09:49:52;5.70;;;1.58;;
80746;SDS011;70144;50.218;14.322;2023-09-30T09:54:44;5.72;;;1.75;;
80746;SDS011;70144;50.218;14.322;2023-09-30T09:57:11;3.85;;;1.50;;
80746;SDS011;70144;50.218;14.322;2023-09-30T10:02:05;5.15;;;1.60;;
80746;SDS011;70144;50.218;14.322;2023-09-30T10:04:35;8.10;;;1.90;;
80746;SDS011;70144;50.218;14.322;2023-09-30T10:07:02;6.40;;;1.85;;
80746;SDS011;70144;50.218;14.322;2023-09-30T10:09:30;5.93;;;2.13;;
80746;SDS011;70144;50.218;14.322;2023-09-30T10:12:00;7.43;;;1.95;;
80746;SDS011;70144;50.218;14.322;2023-09-30T10:14:32;5.20;;;2.13;;
80746;SDS011;70144;50.218;14.322;2023-09-30T10:16:58;5.20;;;1.52;;
80746;SDS011;70144;50.218;14.322;2023-09-30T10:24:53;6.03;;;1.58;;
80746;SDS011;70144;50.218;14.322;2023-09-30T10:37:43;4.57;;;1.50;;
80746;SDS011;70144;50.218;14.322;2023-09-30T10:40:09;5.40;;;1.42;;
80746;SDS011;70144;50.218;14.322;2023-09-30T10:50:51;6.75;;;1.83;;
80746;SDS011;70144;50.218;14.322;2023-09-30T10:53:18;6.18;;;1.55;;
80746;SDS011;70144;50.218;14.322;2023-09-30T10:55:49;5.85;;;2.17;;
80746;SDS011;70144;50.218;14.322;2023-09-30T10:58:20;5.63;;;1.77;;
80746;SDS011;70144;50.218;14.322;2023-09-30T11:00:52;14.55;;;6.22;;
80746;SDS011;70144;50.218;14.322;2023-09-30T11:03:21;16.83;;;7.80;;
80746;SDS011;70144;50.218;14.322;2023-09-30T11:05:50;15.05;;;7.57;;
80746;SDS011;70144;50.218;14.322;2023-09-30T11:08:18;13.57;;;6.15;;
80746;SDS011;70144;50.218;14.322;2023-09-30T11:10:48;49.50;;;26.30;;
80746;SDS011;70144;50.218;14.322;2023-09-30T11:13:15;21.98;;;9.40;;
80746;SDS011;70144;50.218;14.322;2023-09-30T11:15:41;14.32;;;7.18;;
80746;SDS011;70144;50.218;14.322;2023-09-30T11:18:16;5.03;;;2.03;;
80746;SDS011;70144;50.218;14.322;2023-09-30T11:20:43;5.03;;;1.90;;
80746;SDS011;70144;50.218;14.322;2023-09-30T11:23:09;5.65;;;1.95;;
80746;SDS011;70144;50.218;14.322;2023-09-30T11:25:36;4.93;;;1.73;;
80746;SDS011;70144;50.218;14.322;2023-09-30T11:28:15;4.65;;;1.80;;
80746;SDS011;70144;50.218;14.322;2023-09-30T11:30:57;7.15;;;2.05;;
80746;SDS011;70144;50.218;14.322;2023-09-30T11:33:24;4.55;;;2.25;;
80746;SDS011;70144;50.218;14.322;2023-09-30T11:36:03;6.22;;;1.98;;
80746;SDS011;70144;50.218;14.322;2023-09-30T11:38:30;5.68;;;1.77;;
80746;SDS011;70144;50.218;14.322;2023-09-30T11:43:27;6.72;;;1.83;;
80746;SDS011;70144;50.218;14.322;2023-09-30T11:46:03;3.90;;;1.60;;
80746;SDS011;70144;50.218;14.322;2023-09-30T11:48:33;4.43;;;1.52;;
80746;SDS011;70144;50.218;14.322;2023-09-30T11:51:00;5.22;;;1.77;;
80746;SDS011;70144;50.218;14.322;2023-09-30T11:53:28;4.70;;;1.98;;
80746;SDS011;70144;50.218;14.322;2023-09-30T11:56:00;4.28;;;1.67;;
80746;SDS011;70144;50.218;14.322;2023-09-30T11:58:28;3.80;;;1.20;;
80746;SDS011;70144;50.218;14.322;2023-09-30T12:00:57;6.03;;;1.67;;
80746;SDS011;70144;50.218;14.322;2023-09-30T12:03:24;4.38;;;1.60;;
80746;SDS011;70144;50.218;14.322;2023-09-30T12:05:52;5.65;;;2.35;;
80746;SDS011;70144;50.218;14.322;2023-09-30T12:08:20;4.20;;;1.42;;
80746;SDS011;70144;50.218;14.322;2023-09-30T12:10:47;6.57;;;1.55;;
80746;SDS011;70144;50.218;14.322;2023-09-30T12:13:12;5.72;;;1.70;;
80746;SDS011;70144;50.218;14.322;2023-09-30T12:15:37;11.85;;;2.65;;
80746;SDS011;70144;50.218;14.322;2023-09-30T12:18:03;9.13;;;1.83;;
80746;SDS011;70144;50.218;14.322;2023-09-30T12:20:29;10.32;;;2.63;;
80746;SDS011;70144;50.218;14.322;2023-09-30T12:22:55;6.78;;;1.88;;
80746;SDS011;70144;50.218;14.322;2023-09-30T12:25:21;6.13;;;1.63;;
80746;SDS011;70144;50.218;14.322;2023-09-30T12:27:47;5.05;;;1.80;;
80746;SDS011;70144;50.218;14.322;2023-09-30T12:30:13;6.78;;;2.53;;
80746;SDS011;70144;50.218;14.322;2023-09-30T12:32:39;9.23;;;2.22;;
80746;SDS011;70144;50.218;14.322;2023-09-30T12:35:05;7.72;;;2.00;;
80746;SDS011;70144;50.218;14.322;2023-09-30T12:37:31;8.63;;;2.10;;
80746;SDS011;70144;50.218;14.322;2023-09-30T12:39:57;5.15;;;1.60;;
80746;SDS011;70144;50.218;14.322;2023-09-30T12:42:23;7.85;;;2.03;;
80746;SDS011;70144;50.218;14.322;2023-09-30T12:44:48;8.85;;;1.88;;
80746;SDS011;70144;50.218;14.322;2023-09-30T12:47:13;5.00;;;1.83;;
80746;SDS011;70144;50.218;14.322;2023-09-30T12:49:39;6.88;;;1.85;;
80746;SDS011;70144;50.218;14.322;2023-09-30T12:52:04;8.15;;;2.20;;
80746;SDS011;70144;50.218;14.322;2023-09-30T12:54:29;6.35;;;1.77;;
80746;SDS011;70144;50.218;14.322;2023-09-30T12:56:55;5.53;;;2.08;;
80746;SDS011;70144;50.218;14.322;2023-09-30T12:59:20;6.20;;;2.28;;
80746;SDS011;70144;50.218;14.322;2023-09-30T13:01:50;6.13;;;1.73;;
80746;SDS011;70144;50.218;14.322;2023-09-30T13:04:15;4.30;;;1.70;;
80746;SDS011;70144;50.218;14.322;2023-09-30T13:06:41;8.30;;;2.60;;
80746;SDS011;70144;50.218;14.322;2023-09-30T13:09:06;3.95;;;1.80;;
80746;SDS011;70144;50.218;14.322;2023-09-30T13:11:33;4.88;;;1.65;;
80746;SDS011;70144;50.218;14.322;2023-09-30T13:13:59;3.63;;;1.58;;
80746;SDS011;70144;50.218;14.322;2023-09-30T13:16:24;6.38;;;1.98;;
80746;SDS011;70144;50.218;14.322;2023-09-30T13:18:50;4.47;;;1.42;;
80746;SDS011;70144;50.218;14.322;2023-09-30T13:21:17;5.85;;;1.40;;
80746;SDS011;70144;50.218;14.322;2023-09-30T13:23:43;4.55;;;1.52;;
80746;SDS011;70144;50.218;14.322;2023-09-30T13:26:08;4.25;;;1.67;;
80746;SDS011;70144;50.218;14.322;2023-09-30T13:28:34;3.30;;;1.55;;
80746;SDS011;70144;50.218;14.322;2023-09-30T13:30:59;3.60;;;1.33;;
80746;SDS011;70144;50.218;14.322;2023-09-30T13:33:24;3.80;;;1.58;;
80746;SDS011;70144;50.218;14.322;2023-09-30T13:35:50;7.18;;;1.77;;
80746;SDS011;70144;50.218;14.322;2023-09-30T13:38:15;6.65;;;2.05;;
80746;SDS011;70144;50.218;14.322;2023-09-30T13:40:41;6.50;;;1.80;;
80746;SDS011;70144;50.218;14.322;2023-09-30T13:43:07;5.07;;;1.65;;
80746;SDS011;70144;50.218;14.322;2023-09-30T13:45:32;3.67;;;1.48;;
80746;SDS011;70144;50.218;14.322;2023-09-30T13:47:59;5.53;;;2.00;;
80746;SDS011;70144;50.218;14.322;2023-09-30T13:50:24;6.20;;;1.83;;
80746;SDS011;70144;50.218;14.322;2023-09-30T13:52:50;4.40;;;1.92;;
80746;SDS011;70144;50.218;14.322;2023-09-30T13:55:15;7.25;;;2.67;;
80746;SDS011;70144;50.218;14.322;2023-09-30T13:57:44;5.13;;;2.20;;
80746;SDS011;70144;50.218;14.322;2023-09-30T14:00:11;6.00;;;1.63;;
80746;SDS011;70144;50.218;14.322;2023-09-30T14:02:37;6.22;;;1.95;;
80746;SDS011;70144;50.218;14.322;2023-09-30T14:05:03;5.90;;;1.65;;
80746;SDS011;70144;50.218;14.322;2023-09-30T14:07:29;6.72;;;1.90;;
80746;SDS011;70144;50.218;14.322;2023-09-30T14:09:55;3.55;;;1.50;;
80746;SDS011;70144;50.218;14.322;2023-09-30T14:12:20;4.00;;;1.60;;
80746;SDS011;70144;50.218;14.322;2023-09-30T14:14:46;6.55;;;1.80;;
80746;SDS011;70144;50.218;14.322;2023-09-30T14:19:39;5.28;;;1.90;;
80746;SDS011;70144;50.218;14.322;2023-09-30T14:24:31;5.15;;;1.63;;
80746;SDS011;70144;50.218;14.322;2023-09-30T14:26:58;7.95;;;2.03;;
80746;SDS011;70144;50.218;14.322;2023-09-30T14:29:23;4.60;;;1.60;;
80746;SDS011;70144;50.218;14.322;2023-09-30T14:31:49;5.80;;;1.50;;
80746;SDS011;70144;50.218;14.322;2023-09-30T14:34:15;5.18;;;1.55;;
80746;SDS011;70144;50.218;14.322;2023-09-30T14:36:40;3.92;;;1.05;;
80746;SDS011;70144;50.218;14.322;2023-09-30T14:39:06;6.40;;;1.75;;
80746;SDS011;70144;50.218;14.322;2023-09-30T14:41:31;4.47;;;1.65;;
80746;SDS011;70144;50.218;14.322;2023-09-30T14:43:57;4.28;;;1.50;;
80746;SDS011;70144;50.218;14.322;2023-09-30T14:46:23;6.95;;;1.48;;
80746;SDS011;70144;50.218;14.322;2023-09-30T14:48:48;5.60;;;1.55;;
80746;SDS011;70144;50.218;14.322;2023-09-30T14:51:15;4.47;;;1.67;;
80746;SDS011;70144;50.218;14.322;2023-09-30T14:53:40;4.95;;;1.40;;
80746;SDS011;70144;50.218;14.322;2023-09-30T14:56:14;5.28;;;1.40;;
80746;SDS011;70144;50.218;14.322;2023-09-30T14:58:41;6.20;;;1.77;;
80746;SDS011;70144;50.218;14.322;2023-09-30T15:01:09;7.65;;;4.10;;
80746;SDS011;70144;50.218;14.322;2023-09-30T15:03:35;13.52;;;7.30;;
80746;SDS011;70144;50.218;14.322;2023-09-30T15:06:02;11.75;;;6.35;;
80746;SDS011;70144;50.218;14.322;2023-09-30T15:08:29;13.60;;;8.02;;
80746;SDS011;70144;50.218;14.322;2023-09-30T15:10:58;13.43;;;5.10;;
80746;SDS011;70144;50.218;14.322;2023-09-30T15:13:24;14.02;;;5.30;;
80746;SDS011;70144;50.218;14.322;2023-09-30T15:18:15;13.13;;;5.00;;
80746;SDS011;70144;50.218;14.322;2023-09-30T15:20:41;8.07;;;2.30;;
80746;SDS011;70144;50.218;14.322;2023-09-30T15:23:07;7.38;;;3.25;;
80746;SDS011;70144;50.218;14.322;2023-09-30T15:25:32;6.20;;;2.60;;